createdAt,value
2019-02-14T00:05:16.594Z,1.31
2019-02-14T00:07:43.474Z,1.31
2019-02-14T00:10:10.665Z,1.28
2019-02-14T00:12:37.833Z,1.21
2019-02-14T00:15:06.075Z,1.16
2019-02-14T00:17:33.312Z,1.11
2019-02-14T00:20:00.418Z,1.08
2019-02-14T00:22:27.488Z,1.08
2019-02-14T00:24:54.592Z,1.06
2019-02-14T00:27:29.954Z,1.03
2019-02-14T00:29:57.041Z,0.99
2019-02-14T00:32:24.091Z,0.95
2019-02-14T00:34:51.816Z,0.93
2019-02-14T00:37:18.936Z,0.93
2019-02-14T00:39:46.288Z,0.90
2019-02-14T00:42:13.486Z,0.86
2019-02-14T00:44:40.605Z,0.81
2019-02-14T00:47:07.802Z,0.79
2019-02-14T00:49:34.879Z,0.78
2019-02-14T00:52:01.957Z,0.77
2019-02-14T00:54:29.066Z,0.75
2019-02-14T00:56:56.133Z,0.65
2019-02-14T00:59:23.202Z,0.65
2019-02-14T01:05:22.607Z,0.67
2019-02-14T01:07:49.660Z,0.69
2019-02-14T01:10:16.755Z,0.69
2019-02-14T01:12:43.803Z,0.68
2019-02-14T01:15:10.879Z,0.66
2019-02-14T01:17:38.017Z,0.66
2019-02-14T01:20:05.235Z,0.63
2019-02-14T01:22:32.304Z,0.62
2019-02-14T01:25:23.804Z,0.59
2019-02-14T01:27:50.861Z,0.58
2019-02-14T01:30:17.916Z,0.59
2019-02-14T01:32:45.107Z,0.66
2019-02-14T01:35:12.298Z,0.68
2019-02-14T01:37:39.522Z,0.66
2019-02-14T01:40:06.714Z,0.61
2019-02-14T01:42:33.763Z,0.54
2019-02-14T01:45:00.821Z,0.48
2019-02-14T01:47:27.906Z,0.56
2019-02-14T01:49:54.957Z,0.50
2019-02-14T01:52:22.005Z,0.41
2019-02-14T01:54:49.222Z,0.37
2019-02-14T01:57:16.270Z,0.38
2019-02-14T01:59:43.345Z,0.43
2019-02-14T02:02:10.442Z,0.37
2019-02-14T02:04:37.591Z,0.36
2019-02-14T02:07:05.278Z,0.38
2019-02-14T02:09:32.380Z,0.38
2019-02-14T02:11:59.489Z,0.35
2019-02-14T02:14:26.542Z,0.31
2019-02-14T02:16:53.761Z,0.29
2019-02-14T02:19:23.532Z,0.31
2019-02-14T02:21:50.799Z,0.40
2019-02-14T02:24:17.895Z,0.41
2019-02-14T02:26:44.990Z,0.39
2019-02-14T02:29:12.877Z,0.40
2019-02-14T02:31:40.064Z,0.39
2019-02-14T02:34:07.132Z,0.39
2019-02-14T02:36:34.196Z,0.33
2019-02-14T02:39:01.275Z,0.20
2019-02-14T02:41:28.340Z,0.17
2019-02-14T02:43:55.425Z,0.19
2019-02-14T02:46:22.509Z,0.21
2019-02-14T02:48:49.561Z,0.24
2019-02-14T02:51:16.630Z,0.26
2019-02-14T02:53:43.735Z,0.24
2019-02-14T02:56:11.136Z,0.23
2019-02-14T02:58:38.198Z,0.22
2019-02-14T03:01:05.302Z,0.22
2019-02-14T03:03:32.357Z,0.22
2019-02-14T03:05:59.403Z,0.24
2019-02-14T03:08:26.497Z,0.29
2019-02-14T03:10:54.902Z,0.30
2019-02-14T03:13:21.971Z,0.31
2019-02-14T03:15:49.081Z,0.34
2019-02-14T03:18:16.193Z,0.34
2019-02-14T03:20:43.266Z,0.36
2019-02-14T03:23:10.409Z,0.38
2019-02-14T03:25:37.457Z,0.41
2019-02-14T03:28:04.511Z,0.38
2019-02-14T03:30:31.607Z,0.36
2019-02-14T03:32:59.086Z,0.34
2019-02-14T03:35:26.142Z,0.28
2019-02-14T03:37:57.512Z,0.24
2019-02-14T03:40:24.612Z,0.18
2019-02-14T03:42:51.696Z,0.13
2019-02-14T03:45:18.797Z,0.11
2019-02-14T03:47:45.896Z,0.14
2019-02-14T03:50:14.086Z,0.18
2019-02-14T03:52:41.183Z,0.19
2019-02-14T03:55:08.522Z,0.19
2019-02-14T03:57:35.686Z,0.19
2019-02-14T04:01:04.620Z,0.23
2019-02-14T04:03:31.697Z,0.23
2019-02-14T04:05:58.737Z,0.18
2019-02-14T04:08:25.848Z,0.16
2019-02-14T04:10:52.904Z,0.14
2019-02-14T04:13:20.069Z,0.12
2019-02-14T04:15:47.286Z,0.04
2019-02-14T04:18:14.411Z,0.01
2019-02-14T04:20:41.582Z,0.02
2019-02-14T04:23:09.037Z,0.10
2019-02-14T04:25:36.083Z,0.10
2019-02-14T04:28:03.183Z,0.10
2019-02-14T04:30:30.256Z,0.08
2019-02-14T04:32:59.352Z,0.01
2019-02-14T04:35:26.568Z,0.01
2019-02-14T04:37:53.642Z,-0.02
2019-02-14T04:40:20.945Z,-0.08
2019-02-14T04:42:48.060Z,-0.15
2019-02-14T04:46:04.310Z,-0.20
2019-02-14T04:48:31.418Z,-0.22
2019-02-14T04:50:59.579Z,-0.28
2019-02-14T04:53:26.646Z,-0.27
2019-02-14T04:55:53.737Z,-0.27
2019-02-14T04:58:20.822Z,-0.31
2019-02-14T05:00:47.951Z,-0.39
2019-02-14T05:03:15.110Z,-0.48
2019-02-14T05:05:42.281Z,-0.54
2019-02-14T05:08:09.372Z,-0.56
2019-02-14T05:14:09.223Z,-0.51
2019-02-14T05:16:36.296Z,-0.55
2019-02-14T05:19:03.502Z,-0.60
2019-02-14T05:21:30.612Z,-0.61
2019-02-14T05:23:57.684Z,-0.65
2019-02-14T05:26:51.311Z,-0.68
2019-02-14T05:29:41.635Z,-0.69
2019-02-14T05:32:09.849Z,-0.69
2019-02-14T05:34:38.003Z,-0.66
2019-02-14T05:37:05.065Z,-0.65
2019-02-14T05:39:32.162Z,-0.66
2019-02-14T05:41:59.268Z,-0.59
2019-02-14T05:44:26.940Z,-0.54
2019-02-14T05:46:54.127Z,-0.59
2019-02-14T05:49:21.647Z,-0.66
2019-02-14T05:51:48.706Z,-0.67
2019-02-14T05:54:15.844Z,-0.65
2019-02-14T05:56:42.903Z,-0.55
2019-02-14T05:59:09.971Z,-0.48
2019-02-14T06:01:37.061Z,-0.52
2019-02-14T06:04:04.209Z,-0.67
2019-02-14T06:06:31.260Z,-0.72
2019-02-14T06:08:58.381Z,-0.69
2019-02-14T06:11:25.462Z,-0.63
2019-02-14T06:13:52.551Z,-0.74
2019-02-14T06:16:19.675Z,-0.87
2019-02-14T06:18:46.855Z,-0.91
2019-02-14T06:21:19.308Z,-0.95
2019-02-14T06:23:46.418Z,-0.97
2019-02-14T06:26:13.513Z,-0.95
2019-02-14T06:28:40.943Z,-0.96
2019-02-14T06:31:08.060Z,-0.91
2019-02-14T06:33:35.125Z,-0.99
2019-02-14T06:36:02.189Z,-1.12
2019-02-14T06:38:29.286Z,-1.17
2019-02-14T06:41:14.866Z,-1.19
2019-02-14T06:43:42.080Z,-1.22
2019-02-14T06:46:09.169Z,-1.24
2019-02-14T06:48:36.203Z,-1.26
2019-02-14T06:51:03.331Z,-1.22
2019-02-14T06:53:30.394Z,-1.11
2019-02-14T06:55:57.560Z,-1.08
2019-02-14T06:58:24.665Z,-1.18
2019-02-14T07:01:04.186Z,-1.25
2019-02-14T07:03:31.306Z,-1.30
2019-02-14T07:05:58.364Z,-1.34
2019-02-14T07:08:25.435Z,-1.33
2019-02-14T07:10:52.550Z,-1.34
2019-02-14T07:13:29.975Z,-1.34
2019-02-14T07:15:57.120Z,-1.32
2019-02-14T07:18:24.368Z,-1.34
2019-02-14T07:20:51.462Z,-1.31
2019-02-14T07:23:18.668Z,-1.32
2019-02-14T07:25:45.735Z,-1.28
2019-02-14T07:28:12.847Z,-1.25
2019-02-14T07:30:39.979Z,-1.24
2019-02-14T07:33:07.034Z,-1.21
2019-02-14T07:35:34.086Z,-1.17
2019-02-14T07:38:01.191Z,-1.11
2019-02-14T07:40:29.724Z,-1.04
2019-02-14T07:42:56.923Z,-1.02
2019-02-14T07:45:31.376Z,-0.96
2019-02-14T07:47:59.603Z,-0.91
2019-02-14T07:50:26.790Z,-0.81
2019-02-14T07:52:53.941Z,-0.63
2019-02-14T07:55:21.021Z,-0.54
2019-02-14T07:57:48.109Z,-0.42
2019-02-14T08:00:15.656Z,-0.35
2019-02-14T08:02:42.706Z,-0.26
2019-02-14T08:05:10.605Z,-0.17
2019-02-14T08:07:38.554Z,-0.07
2019-02-14T08:10:07.362Z,0.02
2019-02-14T08:12:35.382Z,0.15
2019-02-14T08:15:02.521Z,0.30
2019-02-14T08:17:29.574Z,0.41
2019-02-14T08:19:58.214Z,0.55
2019-02-14T08:22:25.337Z,0.69
2019-02-14T08:24:52.383Z,0.86
2019-02-14T08:27:19.433Z,1.02
2019-02-14T08:29:46.545Z,1.17
2019-02-14T08:32:13.930Z,1.24
2019-02-14T08:34:41.006Z,1.31
2019-02-14T08:37:08.278Z,1.36
2019-02-14T08:39:35.470Z,1.41
2019-02-14T08:42:02.519Z,1.46
2019-02-14T08:44:29.633Z,1.52
2019-02-14T08:46:56.696Z,1.63
2019-02-14T08:49:23.824Z,1.75
2019-02-14T08:51:50.925Z,1.90
2019-02-14T08:54:17.974Z,2.02
2019-02-14T08:56:45.195Z,2.14
2019-02-14T08:59:12.260Z,2.32
2019-02-14T09:01:39.334Z,2.41
2019-02-14T09:04:06.452Z,2.57
2019-02-14T09:06:33.508Z,2.70
2019-02-14T09:09:04.864Z,2.72
2019-02-14T09:11:32.988Z,2.71
2019-02-14T09:14:00.069Z,2.72
2019-02-14T09:16:27.196Z,2.74
2019-02-14T09:18:54.309Z,2.85
2019-02-14T09:21:30.759Z,2.89
2019-02-14T09:23:57.871Z,2.94
2019-02-14T09:26:24.931Z,2.99
2019-02-14T09:28:52.024Z,3.13
2019-02-14T09:31:19.635Z,3.28
2019-02-14T09:33:46.767Z,3.43
2019-02-14T09:36:13.915Z,3.50
2019-02-14T09:38:40.993Z,3.54
2019-02-14T09:41:08.093Z,3.63
2019-02-14T09:43:35.179Z,3.69
2019-02-14T09:46:02.291Z,3.79
2019-02-14T09:48:29.389Z,3.83
2019-02-14T09:50:56.550Z,3.90
2019-02-14T09:53:23.739Z,3.97
2019-02-14T09:55:50.824Z,3.98
2019-02-14T09:58:18.027Z,4.02
2019-02-14T10:00:45.118Z,4.14
2019-02-14T10:03:12.177Z,4.22
2019-02-14T10:05:39.236Z,4.30
2019-02-14T10:08:12.365Z,4.46
2019-02-14T10:10:35.299Z,4.57
2019-02-14T10:13:02.386Z,4.79
2019-02-14T10:15:29.490Z,5.01
2019-02-14T10:17:59.661Z,5.15
2019-02-14T10:20:26.770Z,5.22
2019-02-14T10:22:53.872Z,5.49
2019-02-14T10:25:20.928Z,5.84
2019-02-14T10:27:53.416Z,6.14
2019-02-14T10:30:20.500Z,6.47
2019-02-14T10:32:49.225Z,6.73
2019-02-14T10:35:16.598Z,6.95
2019-02-14T10:37:43.677Z,7.17
2019-02-14T10:40:11.827Z,7.19
2019-02-14T10:42:38.879Z,7.18
2019-02-14T10:45:08.670Z,7.07
2019-02-14T10:47:35.728Z,6.91
2019-02-14T10:50:03.001Z,6.83
2019-02-14T10:52:30.370Z,6.80
2019-02-14T10:54:57.421Z,6.80
2019-02-14T10:57:24.530Z,6.86
2019-02-14T10:59:51.880Z,6.91
2019-02-14T11:02:18.959Z,6.86
2019-02-14T11:04:47.069Z,6.88
2019-02-14T11:07:14.354Z,6.85
2019-02-14T11:09:41.461Z,6.78
2019-02-14T11:12:08.555Z,6.82
2019-02-14T11:14:35.623Z,7.14
2019-02-14T11:17:02.830Z,7.44
2019-02-14T11:19:29.922Z,7.75
2019-02-14T11:22:00.740Z,7.87
2019-02-14T11:24:27.896Z,7.98
2019-02-14T11:26:55.040Z,7.94
2019-02-14T11:29:22.133Z,7.91
2019-02-14T11:31:50.461Z,8.01
2019-02-14T11:34:17.662Z,8.05
2019-02-14T11:36:45.049Z,8.07
2019-02-14T11:39:12.297Z,8.19
2019-02-14T11:41:39.540Z,8.48
2019-02-14T11:44:06.655Z,8.52
2019-02-14T11:46:33.789Z,8.46
2019-02-14T11:49:00.961Z,8.37
2019-02-14T11:51:28.031Z,8.36
2019-02-14T11:53:55.140Z,8.51
2019-02-14T11:56:23.238Z,8.56
2019-02-14T11:58:50.322Z,8.57
2019-02-14T12:01:17.508Z,8.59
2019-02-14T12:03:44.611Z,8.55
2019-02-14T12:06:17.361Z,8.51
2019-02-14T12:08:53.028Z,8.56
2019-02-14T12:11:58.499Z,8.70
2019-02-14T12:14:25.640Z,8.87
2019-02-14T12:16:52.993Z,9.12
2019-02-14T12:19:20.224Z,9.12
2019-02-14T12:21:47.431Z,9.10
2019-02-14T12:24:14.491Z,8.89
2019-02-14T12:26:41.544Z,8.76
2019-02-14T12:29:08.665Z,8.65
2019-02-14T12:31:35.931Z,8.66
2019-02-14T12:34:03.280Z,8.71
2019-02-14T12:36:30.535Z,8.71
2019-02-14T12:38:57.622Z,8.71
2019-02-14T12:41:24.711Z,8.75
2019-02-14T12:43:51.836Z,8.77
2019-02-14T12:46:19.011Z,8.91
2019-02-14T12:48:46.071Z,9.10
2019-02-14T12:51:13.247Z,9.16
2019-02-14T12:53:40.563Z,9.29
2019-02-14T12:56:07.770Z,9.43
2019-02-14T12:58:34.829Z,9.61
2019-02-14T13:01:01.942Z,9.86
2019-02-14T13:03:29.007Z,9.91
2019-02-14T13:05:56.094Z,10.04
2019-02-14T13:08:23.177Z,10.20
2019-02-14T13:10:50.247Z,10.41
2019-02-14T13:13:17.298Z,10.62
2019-02-14T13:16:02.853Z,11.02
2019-02-14T13:18:29.909Z,11.44
2019-02-14T13:20:56.981Z,11.87
2019-02-14T13:23:39.250Z,12.28
2019-02-14T13:26:06.287Z,12.62
2019-02-14T13:28:33.367Z,12.91
2019-02-14T13:31:00.777Z,13.11
2019-02-14T13:33:27.980Z,13.36
2019-02-14T13:35:55.004Z,13.65
2019-02-14T13:38:22.102Z,13.97
2019-02-14T13:40:49.198Z,14.18
2019-02-14T13:43:16.245Z,14.20
2019-02-14T13:45:43.326Z,14.18
2019-02-14T13:48:10.439Z,14.37
2019-02-14T13:50:37.512Z,14.51
2019-02-14T13:53:07.233Z,14.59
2019-02-14T13:55:34.360Z,14.70
2019-02-14T13:58:01.448Z,14.80
2019-02-14T14:00:37.555Z,14.93
2019-02-14T14:03:04.652Z,14.98
2019-02-14T14:05:31.814Z,15.11
2019-02-14T14:07:58.923Z,15.27
2019-02-14T14:10:26.069Z,15.35
2019-02-14T14:12:53.237Z,15.46
2019-02-14T14:15:20.329Z,15.45
2019-02-14T14:17:47.413Z,15.50
2019-02-14T14:20:14.675Z,15.50
2019-02-14T14:22:41.911Z,15.36
2019-02-14T14:25:09.103Z,15.26
2019-02-14T14:27:36.171Z,15.22
2019-02-14T14:30:03.866Z,15.06
2019-02-14T14:32:30.919Z,14.97
2019-02-14T14:34:58.010Z,15.03
2019-02-14T14:37:25.108Z,15.00
2019-02-14T14:39:52.293Z,15.04
2019-02-14T14:42:37.792Z,15.03
2019-02-14T14:45:07.332Z,15.10
2019-02-14T14:47:34.454Z,15.07
2019-02-14T14:50:02.739Z,15.00
2019-02-14T14:52:29.971Z,14.85
2019-02-14T14:54:57.040Z,14.67
2019-02-14T14:57:24.221Z,14.52
2019-02-14T14:59:51.316Z,14.26
2019-02-14T15:02:18.701Z,14.10
2019-02-14T15:04:45.803Z,13.93
2019-02-14T15:07:12.944Z,13.82
2019-02-14T15:09:40.070Z,13.70
2019-02-14T15:12:07.282Z,13.59
2019-02-14T15:14:34.482Z,13.47
2019-02-14T15:17:05.648Z,13.34
2019-02-14T15:19:32.833Z,13.25
2019-02-14T15:21:59.905Z,13.12
2019-02-14T15:24:26.977Z,12.96
2019-02-14T15:26:54.037Z,12.86
2019-02-14T15:29:21.131Z,12.78
2019-02-14T15:31:48.221Z,12.66
2019-02-14T15:34:15.319Z,12.59
2019-02-14T15:36:42.542Z,12.45
2019-02-14T15:39:09.742Z,12.32
2019-02-14T15:41:36.812Z,12.18
2019-02-14T15:44:04.022Z,12.11
2019-02-14T15:46:31.165Z,12.00
2019-02-14T15:48:58.422Z,11.85
2019-02-14T15:51:25.643Z,11.67
2019-02-14T15:53:54.094Z,11.45
2019-02-14T15:56:21.242Z,11.34
2019-02-14T15:58:48.471Z,11.30
2019-02-14T16:01:16.600Z,11.17
2019-02-14T16:03:44.651Z,11.04
2019-02-14T16:06:11.802Z,10.97
2019-02-14T16:08:38.900Z,10.80
2019-02-14T16:11:05.988Z,10.70
2019-02-14T16:13:33.718Z,10.68
2019-02-14T16:16:00.980Z,10.53
2019-02-14T16:18:28.104Z,10.30
2019-02-14T16:20:55.281Z,10.08
2019-02-14T16:23:22.453Z,9.88
2019-02-14T16:25:50.145Z,9.85
2019-02-14T16:28:18.569Z,9.78
2019-02-14T16:30:45.679Z,9.47
2019-02-14T16:33:12.785Z,9.22
2019-02-14T16:35:39.859Z,9.01
2019-02-14T16:38:07.000Z,8.80
2019-02-14T16:40:38.627Z,8.66
2019-02-14T16:43:03.064Z,8.51
2019-02-14T16:45:30.198Z,8.15
2019-02-14T16:47:57.303Z,7.89
2019-02-14T16:50:24.443Z,7.64
2019-02-14T16:52:51.573Z,7.41
2019-02-14T16:55:18.704Z,7.18
2019-02-14T16:57:45.890Z,6.99
2019-02-14T17:00:12.987Z,6.81
2019-02-14T17:02:40.063Z,6.65
2019-02-14T17:05:07.444Z,6.50
2019-02-14T17:07:34.528Z,6.28
2019-02-14T17:10:01.636Z,6.11
2019-02-14T17:12:28.742Z,5.97
2019-02-14T17:14:56.205Z,5.80
2019-02-14T17:17:27.840Z,5.62
2019-02-14T17:19:52.283Z,5.51
2019-02-14T17:22:19.407Z,5.37
2019-02-14T17:24:46.801Z,5.25
2019-02-14T17:27:13.871Z,5.13
2019-02-14T17:29:41.022Z,4.96
2019-02-14T17:32:08.136Z,4.85
2019-02-14T17:34:35.313Z,4.75
2019-02-14T17:37:02.486Z,4.65
2019-02-14T17:39:29.681Z,4.52
2019-02-14T17:41:56.811Z,4.40
2019-02-14T17:44:23.922Z,4.34
2019-02-14T17:46:51.076Z,4.28
2019-02-14T17:49:20.099Z,4.22
2019-02-14T17:51:47.166Z,4.14
2019-02-14T17:54:14.414Z,4.03
2019-02-14T17:56:41.648Z,3.92
2019-02-14T17:59:09.728Z,3.82
2019-02-14T18:01:37.201Z,3.76
2019-02-14T18:04:06.124Z,3.70
2019-02-14T18:06:34.453Z,3.61
2019-02-14T18:09:01.848Z,3.53
2019-02-14T18:11:29.056Z,3.45
2019-02-14T18:13:56.157Z,3.38
2019-02-14T18:16:23.401Z,3.30
2019-02-14T18:18:50.510Z,3.23
2019-02-14T18:21:17.605Z,3.22
2019-02-14T18:23:44.865Z,3.15
2019-02-14T18:26:11.969Z,3.09
2019-02-14T18:28:39.175Z,3.05
2019-02-14T18:31:06.286Z,2.97
2019-02-14T18:33:33.381Z,2.91
2019-02-14T18:36:00.475Z,2.85
2019-02-14T18:38:27.585Z,2.80
2019-02-14T18:41:03.871Z,2.74
2019-02-14T18:43:25.713Z,2.71
2019-02-14T18:45:52.950Z,2.65
2019-02-14T18:48:20.120Z,2.60
2019-02-14T18:50:47.307Z,2.53
2019-02-14T18:53:14.527Z,2.43
2019-02-14T18:55:42.975Z,2.37
2019-02-14T18:58:10.047Z,2.33
2019-02-14T19:00:37.251Z,2.29
2019-02-14T19:03:04.445Z,2.26
2019-02-14T19:05:31.547Z,2.23
2019-02-14T19:07:59.131Z,2.24
2019-02-14T19:10:26.282Z,2.18
2019-02-14T19:12:53.441Z,2.05
2019-02-14T19:15:20.634Z,1.95
2019-02-14T19:17:53.232Z,1.91
2019-02-14T19:20:20.327Z,1.89
2019-02-14T19:22:47.640Z,1.86
2019-02-14T19:25:16.353Z,1.83
2019-02-14T19:27:43.590Z,1.80
2019-02-14T19:34:25.361Z,1.72
2019-02-14T19:36:52.433Z,1.68
2019-02-14T19:39:24.971Z,1.67
2019-02-14T19:41:52.078Z,1.64
2019-02-14T19:44:19.338Z,1.63
2019-02-14T19:46:46.486Z,1.58
2019-02-14T19:49:13.639Z,1.53
2019-02-14T19:51:40.821Z,1.50
2019-02-14T19:54:08.042Z,1.48
2019-02-14T19:56:35.131Z,1.44
2019-02-14T19:59:02.195Z,1.41
2019-02-14T20:01:29.451Z,1.39
2019-02-14T20:03:56.535Z,1.37
2019-02-14T20:06:23.645Z,1.33
2019-02-14T20:08:50.770Z,1.24
2019-02-14T20:11:18.030Z,1.17
2019-02-14T20:13:49.498Z,1.14
2019-02-14T20:16:14.387Z,1.11
2019-02-14T20:18:41.559Z,1.08
2019-02-14T20:21:08.784Z,1.06
2019-02-14T20:23:36.040Z,1.01
2019-02-14T20:26:03.646Z,0.99
2019-02-14T20:28:30.721Z,1.03
2019-02-14T20:30:58.755Z,1.06
2019-02-14T20:33:25.924Z,1.05
2019-02-14T20:36:00.011Z,1.07
2019-02-14T20:38:27.166Z,1.05
2019-02-14T20:40:54.268Z,1.05
2019-02-14T20:43:21.360Z,1.04
2019-02-14T20:45:48.490Z,1.08
2019-02-14T20:48:15.710Z,1.12
2019-02-14T20:50:42.863Z,1.17
2019-02-14T20:53:10.082Z,1.23
2019-02-14T20:55:37.167Z,1.22
2019-02-14T20:58:04.245Z,1.28
2019-02-14T21:00:32.340Z,1.40
2019-02-14T21:02:59.559Z,1.40
2019-02-14T21:05:26.787Z,1.47
2019-02-14T21:07:53.993Z,1.47
2019-02-14T21:10:21.108Z,1.69
2019-02-14T21:12:48.706Z,1.79
2019-02-14T21:15:15.846Z,1.69
2019-02-14T21:17:43.428Z,1.60
2019-02-14T21:20:10.579Z,1.52
2019-02-14T21:22:37.715Z,1.50
2019-02-14T21:25:05.092Z,1.42
2019-02-14T21:27:35.119Z,1.37
2019-02-14T21:30:01.407Z,1.38
2019-02-14T21:32:28.473Z,1.51
2019-02-14T21:34:55.535Z,1.51
2019-02-14T21:37:22.651Z,1.51
2019-02-14T21:39:49.722Z,1.52
2019-02-14T21:42:21.089Z,1.44
2019-02-14T21:44:45.887Z,1.37
2019-02-14T21:47:13.031Z,1.35
2019-02-14T21:49:40.171Z,1.28
2019-02-14T21:52:07.293Z,1.29
2019-02-14T21:54:37.401Z,1.28
2019-02-14T21:57:04.521Z,1.35
2019-02-14T21:59:31.589Z,1.36
2019-02-14T22:01:58.723Z,1.33
2019-02-14T22:04:26.000Z,1.47
2019-02-14T22:06:53.137Z,1.48
2019-02-14T22:09:20.369Z,1.52
2019-02-14T22:11:47.563Z,1.41
2019-02-14T22:14:14.633Z,1.28
2019-02-14T22:16:41.763Z,1.49
2019-02-14T22:19:08.830Z,1.53
2019-02-14T22:21:35.942Z,1.43
2019-02-14T22:24:03.248Z,1.39
2019-02-14T22:26:30.434Z,1.28
2019-02-14T22:28:57.512Z,1.17
2019-02-14T22:31:24.863Z,1.08
2019-02-14T22:33:51.898Z,1.09
2019-02-14T22:36:18.954Z,1.05
2019-02-14T22:38:46.070Z,1.03
2019-02-14T22:41:13.128Z,0.98
2019-02-14T22:43:40.289Z,0.90
2019-02-14T22:46:07.401Z,1.01
2019-02-14T22:48:34.479Z,1.07
2019-02-14T22:51:01.567Z,1.10
2019-02-14T22:53:28.676Z,1.02
2019-02-14T22:55:55.736Z,1.11
2019-02-14T22:58:22.806Z,1.22
2019-02-14T23:00:55.549Z,1.26
2019-02-14T23:03:22.634Z,1.21
2019-02-14T23:05:49.703Z,1.14
2019-02-14T23:08:16.794Z,1.16
2019-02-14T23:10:43.853Z,1.24
2019-02-14T23:13:10.923Z,1.48
2019-02-14T23:15:38.051Z,1.86
2019-02-14T23:18:05.203Z,2.30
2019-02-14T23:20:32.379Z,2.52
2019-02-14T23:22:59.487Z,2.52
2019-02-14T23:25:26.625Z,2.49
2019-02-14T23:27:53.682Z,2.58
2019-02-14T23:30:20.833Z,2.57
2019-02-14T23:32:48.059Z,2.63
2019-02-14T23:35:15.133Z,2.66
2019-02-14T23:37:42.231Z,2.61
2019-02-14T23:40:09.278Z,2.43
2019-02-14T23:42:36.364Z,2.27
2019-02-14T23:45:04.043Z,2.14
2019-02-14T23:47:33.012Z,2.21
2019-02-14T23:50:00.283Z,2.30
2019-02-14T23:52:27.487Z,2.55
2019-02-14T23:54:54.578Z,2.32
2019-02-14T23:57:21.728Z,2.05
2019-02-14T23:59:48.856Z,1.75
